This is the latest recevied weather packets stored in our database for station/object EA7AZH-5. If no packets are shown the sender has not sent any weather packets the latest 10 day(s).
| Time | Temp. | Humidity | Pressure | Rain* | Wind** | Luminosity | Snow |
|---|---|---|---|---|---|---|---|
| 1778085718 | 23.33° C | 53% | 1008 hPa | - | - | - | - |
| 1778083317 | 23.89° C | 52% | 1008 hPa | - | - | - | - |
| 1778077322 | 26.67° C | 32% | 1008.8 hPa | - | - | - | - |
| 1778075517 | 26.67° C | 33% | 1009 hPa | - | - | - | - |
| 1778072517 | 26.11° C | 31% | 1008.9 hPa | - | - | - | - |
| 1778071322 | 27.22° C | 29% | 1008.9 hPa | - | - | - | - |
| 1778068917 | 26.67° C | 35% | 1009.2 hPa | - | - | - | - |
| 1778067117 | 25.56° C | 36% | 1009.2 hPa | - | - | - | - |
| 1778064717 | 24.44° C | 45% | 1009.4 hPa | - | - | - | - |
| 1778064117 | 24.44° C | 48% | 1009.5 hPa | - | - | - | - |
| 1778060522 | 24.44° C | 40% | 1009.7 hPa | - | - | - | - |
| 1778059916 | 23.33° C | 42% | 1009.6 hPa | - | - | - | - |
| 1778056316 | 23.33° C | 38% | 1009.5 hPa | - | - | - | - |
| 1777930436 | 23.33° C | 34% | 1012.3 hPa | - | - | - | - |
| 1777924436 | 22.78° C | 44% | 1011.8 hPa | - | - | - | - |
| 1777923831 | 23.33° C | 42% | 1011.6 hPa | - | - | - | - |
| 1777920231 | 23.33° C | 41% | 1011.1 hPa | - | - | - | - |
| 1777916636 | 24.44° C | 38% | 1011.1 hPa | - | - | - | - |
| 1777916031 | 23.89° C | 39% | 1011.1 hPa | - | - | - | - |
| 1777914230 | 23.89° C | 43% | 1011.2 hPa | - | - | - | - |
| 1777909430 | 25° C | 40% | 1011.4 hPa | - | - | - | - |
| 1777908830 | 24.44° C | 43% | 1011.3 hPa | - | - | - | - |
| 1777906430 | 25° C | 41% | 1011.5 hPa | - | - | - | - |
| 1777904630 | 23.89° C | 44% | 1011.9 hPa | - | - | - | - |
| 1777903430 | 23.89° C | 42% | 1012.1 hPa | - | - | - | - |
* Rain since midnight (hover to see other rain measurements)
** Current wind speed in m/s (hover to see current wind gust speed)